sensor_id;sensor_type;location;lat;lon;timestamp;P1;durP1;ratioP1;P2;durP2;ratioP2
64235;SDS011;50564;47.402;9.740;2024-02-26T00:04:40;2.10;;;0.60;;
64235;SDS011;50564;47.402;9.740;2024-02-26T00:09:41;0.82;;;0.50;;
64235;SDS011;50564;47.402;9.740;2024-02-26T00:14:42;0.50;;;0.50;;
64235;SDS011;50564;47.402;9.740;2024-02-26T00:19:45;1.50;;;0.63;;
64235;SDS011;50564;47.402;9.740;2024-02-26T00:24:45;1.83;;;0.60;;
64235;SDS011;50564;47.402;9.740;2024-02-26T00:29:46;0.80;;;0.60;;
64235;SDS011;50564;47.402;9.740;2024-02-26T00:34:47;1.70;;;1.15;;
64235;SDS011;50564;47.402;9.740;2024-02-26T00:39:47;2.28;;;0.68;;
64235;SDS011;50564;47.402;9.740;2024-02-26T00:44:48;0.73;;;0.70;;
64235;SDS011;50564;47.402;9.740;2024-02-26T00:49:48;1.02;;;0.60;;
64235;SDS011;50564;47.402;9.740;2024-02-26T00:54:49;0.55;;;0.55;;
64235;SDS011;50564;47.402;9.740;2024-02-26T00:59:49;1.15;;;0.80;;
64235;SDS011;50564;47.402;9.740;2024-02-26T01:04:50;0.50;;;0.50;;
64235;SDS011;50564;47.402;9.740;2024-02-26T01:09:51;0.20;;;0.20;;
64235;SDS011;50564;47.402;9.740;2024-02-26T01:14:52;1.13;;;0.43;;
64235;SDS011;50564;47.402;9.740;2024-02-26T01:19:52;0.63;;;0.57;;
64235;SDS011;50564;47.402;9.740;2024-02-26T01:24:53;0.73;;;0.40;;
64235;SDS011;50564;47.402;9.740;2024-02-26T01:29:54;0.98;;;0.60;;
64235;SDS011;50564;47.402;9.740;2024-02-26T01:34:55;0.45;;;0.35;;
64235;SDS011;50564;47.402;9.740;2024-02-26T01:39:56;2.55;;;0.38;;
64235;SDS011;50564;47.402;9.740;2024-02-26T01:44:57;0.60;;;0.40;;
64235;SDS011;50564;47.402;9.740;2024-02-26T01:49:57;0.65;;;0.30;;
64235;SDS011;50564;47.402;9.740;2024-02-26T01:54:58;0.30;;;0.20;;
64235;SDS011;50564;47.402;9.740;2024-02-26T02:00:01;0.25;;;0.20;;
64235;SDS011;50564;47.402;9.740;2024-02-26T02:05:06;0.57;;;0.43;;
64235;SDS011;50564;47.402;9.740;2024-02-26T02:10:07;0.55;;;0.30;;
64235;SDS011;50564;47.402;9.740;2024-02-26T02:15:08;0.60;;;0.32;;
64235;SDS011;50564;47.402;9.740;2024-02-26T02:20:15;1.08;;;0.40;;
64235;SDS011;50564;47.402;9.740;2024-02-26T02:25:17;1.65;;;0.32;;
64235;SDS011;50564;47.402;9.740;2024-02-26T02:30:18;0.70;;;0.30;;
64235;SDS011;50564;47.402;9.740;2024-02-26T02:35:18;0.98;;;0.30;;
64235;SDS011;50564;47.402;9.740;2024-02-26T02:40:19;1.10;;;0.22;;
64235;SDS011;50564;47.402;9.740;2024-02-26T02:45:19;1.42;;;0.43;;
64235;SDS011;50564;47.402;9.740;2024-02-26T02:50:20;0.85;;;0.38;;
64235;SDS011;50564;47.402;9.740;2024-02-26T02:55:21;1.17;;;0.20;;
64235;SDS011;50564;47.402;9.740;2024-02-26T03:00:21;0.22;;;0.22;;
64235;SDS011;50564;47.402;9.740;2024-02-26T03:05:25;0.22;;;0.17;;
64235;SDS011;50564;47.402;9.740;2024-02-26T03:10:25;0.20;;;0.20;;
64235;SDS011;50564;47.402;9.740;2024-02-26T03:15:26;0.30;;;0.30;;
64235;SDS011;50564;47.402;9.740;2024-02-26T03:20:27;0.10;;;0.10;;
64235;SDS011;50564;47.402;9.740;2024-02-26T03:25:27;0.50;;;0.30;;
64235;SDS011;50564;47.402;9.740;2024-02-26T03:30:28;0.50;;;0.40;;
64235;SDS011;50564;47.402;9.740;2024-02-26T03:35:29;0.30;;;0.30;;
64235;SDS011;50564;47.402;9.740;2024-02-26T03:40:29;1.08;;;0.65;;
64235;SDS011;50564;47.402;9.740;2024-02-26T03:45:30;2.78;;;1.30;;
64235;SDS011;50564;47.402;9.740;2024-02-26T03:50:30;1.60;;;0.90;;
64235;SDS011;50564;47.402;9.740;2024-02-26T03:55:31;0.80;;;0.80;;
64235;SDS011;50564;47.402;9.740;2024-02-26T04:00:31;3.45;;;1.90;;
64235;SDS011;50564;47.402;9.740;2024-02-26T04:05:32;4.93;;;2.35;;
64235;SDS011;50564;47.402;9.740;2024-02-26T04:10:33;3.13;;;1.50;;
64235;SDS011;50564;47.402;9.740;2024-02-26T04:15:39;2.22;;;1.23;;
64235;SDS011;50564;47.402;9.740;2024-02-26T04:20:39;0.63;;;0.43;;
64235;SDS011;50564;47.402;9.740;2024-02-26T04:25:42;0.57;;;0.40;;
64235;SDS011;50564;47.402;9.740;2024-02-26T04:30:43;2.72;;;0.70;;
64235;SDS011;50564;47.402;9.740;2024-02-26T04:35:43;0.57;;;0.50;;
64235;SDS011;50564;47.402;9.740;2024-02-26T04:40:44;0.90;;;0.38;;
64235;SDS011;50564;47.402;9.740;2024-02-26T04:45:45;0.40;;;0.40;;
64235;SDS011;50564;47.402;9.740;2024-02-26T04:50:46;1.48;;;0.90;;
64235;SDS011;50564;47.402;9.740;2024-02-26T04:55:46;4.07;;;1.55;;
64235;SDS011;50564;47.402;9.740;2024-02-26T05:00:47;3.15;;;1.35;;
64235;SDS011;50564;47.402;9.740;2024-02-26T05:06:13;4.72;;;2.33;;
64235;SDS011;50564;47.402;9.740;2024-02-26T05:11:13;5.85;;;2.63;;
64235;SDS011;50564;47.402;9.740;2024-02-26T05:16:14;2.03;;;1.00;;
64235;SDS011;50564;47.402;9.740;2024-02-26T05:21:14;6.63;;;3.78;;
64235;SDS011;50564;47.402;9.740;2024-02-26T05:26:21;10.60;;;4.53;;
64235;SDS011;50564;47.402;9.740;2024-02-26T05:31:22;7.20;;;3.83;;
64235;SDS011;50564;47.402;9.740;2024-02-26T05:36:23;2.90;;;1.30;;
64235;SDS011;50564;47.402;9.740;2024-02-26T05:41:25;5.07;;;1.08;;
64235;SDS011;50564;47.402;9.740;2024-02-26T05:46:26;0.40;;;0.40;;
64235;SDS011;50564;47.402;9.740;2024-02-26T05:51:27;2.55;;;0.82;;
64235;SDS011;50564;47.402;9.740;2024-02-26T05:56:28;2.17;;;0.82;;
64235;SDS011;50564;47.402;9.740;2024-02-26T06:01:28;0.90;;;0.70;;
64235;SDS011;50564;47.402;9.740;2024-02-26T06:06:29;4.10;;;2.05;;
64235;SDS011;50564;47.402;9.740;2024-02-26T06:11:29;4.40;;;2.00;;
64235;SDS011;50564;47.402;9.740;2024-02-26T06:16:30;5.05;;;2.20;;
64235;SDS011;50564;47.402;9.740;2024-02-26T06:21:31;3.47;;;1.98;;
64235;SDS011;50564;47.402;9.740;2024-02-26T06:26:32;3.97;;;1.88;;
64235;SDS011;50564;47.402;9.740;2024-02-26T06:31:33;4.32;;;1.80;;
64235;SDS011;50564;47.402;9.740;2024-02-26T06:36:34;2.70;;;1.50;;
64235;SDS011;50564;47.402;9.740;2024-02-26T06:41:36;2.78;;;1.70;;
64235;SDS011;50564;47.402;9.740;2024-02-26T06:46:39;2.97;;;1.55;;
64235;SDS011;50564;47.402;9.740;2024-02-26T06:51:39;4.07;;;2.45;;
64235;SDS011;50564;47.402;9.740;2024-02-26T06:56:40;4.65;;;3.10;;
64235;SDS011;50564;47.402;9.740;2024-02-26T07:01:41;7.50;;;4.63;;
64235;SDS011;50564;47.402;9.740;2024-02-26T07:06:42;5.25;;;4.10;;
64235;SDS011;50564;47.402;9.740;2024-02-26T07:11:43;4.93;;;2.58;;
64235;SDS011;50564;47.402;9.740;2024-02-26T07:16:44;5.40;;;2.40;;
64235;SDS011;50564;47.402;9.740;2024-02-26T07:21:45;3.78;;;2.33;;
64235;SDS011;50564;47.402;9.740;2024-02-26T07:26:45;4.40;;;2.35;;
64235;SDS011;50564;47.402;9.740;2024-02-26T07:31:46;5.82;;;3.55;;
64235;SDS011;50564;47.402;9.740;2024-02-26T07:36:47;4.07;;;2.35;;
64235;SDS011;50564;47.402;9.740;2024-02-26T07:41:48;4.80;;;2.60;;
64235;SDS011;50564;47.402;9.740;2024-02-26T07:46:51;3.88;;;1.90;;
64235;SDS011;50564;47.402;9.740;2024-02-26T07:51:52;5.30;;;2.38;;
64235;SDS011;50564;47.402;9.740;2024-02-26T07:56:52;6.45;;;2.67;;
64235;SDS011;50564;47.402;9.740;2024-02-26T08:01:53;6.18;;;3.33;;
64235;SDS011;50564;47.402;9.740;2024-02-26T08:06:54;5.72;;;2.90;;
64235;SDS011;50564;47.402;9.740;2024-02-26T08:11:54;7.30;;;3.00;;
64235;SDS011;50564;47.402;9.740;2024-02-26T08:16:55;7.60;;;2.72;;
64235;SDS011;50564;47.402;9.740;2024-02-26T08:21:56;13.52;;;4.53;;
64235;SDS011;50564;47.402;9.740;2024-02-26T08:26:56;7.13;;;3.17;;
64235;SDS011;50564;47.402;9.740;2024-02-26T08:31:57;5.80;;;2.63;;
64235;SDS011;50564;47.402;9.740;2024-02-26T08:36:58;5.68;;;2.47;;
64235;SDS011;50564;47.402;9.740;2024-02-26T08:41:58;5.97;;;2.90;;
64235;SDS011;50564;47.402;9.740;2024-02-26T08:46:59;7.72;;;2.90;;
64235;SDS011;50564;47.402;9.740;2024-02-26T08:51:59;5.78;;;2.33;;
64235;SDS011;50564;47.402;9.740;2024-02-26T08:57:00;7.10;;;2.92;;
64235;SDS011;50564;47.402;9.740;2024-02-26T09:02:00;5.80;;;3.22;;
64235;SDS011;50564;47.402;9.740;2024-02-26T09:07:01;7.43;;;2.85;;
64235;SDS011;50564;47.402;9.740;2024-02-26T09:12:02;4.95;;;2.60;;
64235;SDS011;50564;47.402;9.740;2024-02-26T09:17:03;7.60;;;2.97;;
64235;SDS011;50564;47.402;9.740;2024-02-26T09:22:03;6.65;;;2.70;;
64235;SDS011;50564;47.402;9.740;2024-02-26T09:27:04;6.55;;;3.85;;
64235;SDS011;50564;47.402;9.740;2024-02-26T09:32:05;4.63;;;2.03;;
64235;SDS011;50564;47.402;9.740;2024-02-26T09:37:05;3.42;;;1.30;;
64235;SDS011;50564;47.402;9.740;2024-02-26T09:42:06;2.38;;;1.13;;
64235;SDS011;50564;47.402;9.740;2024-02-26T09:47:10;3.80;;;1.60;;
64235;SDS011;50564;47.402;9.740;2024-02-26T09:52:12;6.15;;;2.22;;
64235;SDS011;50564;47.402;9.740;2024-02-26T09:57:12;3.55;;;2.00;;
64235;SDS011;50564;47.402;9.740;2024-02-26T10:02:17;6.32;;;2.35;;
64235;SDS011;50564;47.402;9.740;2024-02-26T10:07:19;4.70;;;2.33;;
64235;SDS011;50564;47.402;9.740;2024-02-26T10:12:20;6.43;;;2.80;;
64235;SDS011;50564;47.402;9.740;2024-02-26T10:17:22;6.15;;;2.22;;
64235;SDS011;50564;47.402;9.740;2024-02-26T10:22:22;3.47;;;1.45;;
64235;SDS011;50564;47.402;9.740;2024-02-26T10:27:23;4.63;;;1.90;;
64235;SDS011;50564;47.402;9.740;2024-02-26T10:32:24;7.07;;;1.80;;
64235;SDS011;50564;47.402;9.740;2024-02-26T10:37:24;4.35;;;2.22;;
64235;SDS011;50564;47.402;9.740;2024-02-26T10:42:25;4.68;;;2.08;;
64235;SDS011;50564;47.402;9.740;2024-02-26T10:47:26;2.08;;;1.67;;
64235;SDS011;50564;47.402;9.740;2024-02-26T10:52:27;4.85;;;2.75;;
64235;SDS011;50564;47.402;9.740;2024-02-26T10:57:33;9.40;;;3.72;;
64235;SDS011;50564;47.402;9.740;2024-02-26T11:02:37;5.57;;;2.67;;
64235;SDS011;50564;47.402;9.740;2024-02-26T11:07:39;4.00;;;2.67;;
64235;SDS011;50564;47.402;9.740;2024-02-26T11:12:41;6.70;;;2.90;;
64235;SDS011;50564;47.402;9.740;2024-02-26T11:17:42;7.85;;;3.13;;
64235;SDS011;50564;47.402;9.740;2024-02-26T11:22:43;6.97;;;2.67;;
64235;SDS011;50564;47.402;9.740;2024-02-26T11:27:44;4.88;;;2.50;;
64235;SDS011;50564;47.402;9.740;2024-02-26T11:32:49;5.30;;;2.95;;
64235;SDS011;50564;47.402;9.740;2024-02-26T11:37:51;14.25;;;3.63;;
64235;SDS011;50564;47.402;9.740;2024-02-26T11:42:56;7.05;;;3.53;;
64235;SDS011;50564;47.402;9.740;2024-02-26T11:47:57;7.15;;;3.42;;
64235;SDS011;50564;47.402;9.740;2024-02-26T11:58:30;6.55;;;3.88;;
64235;SDS011;50564;47.402;9.740;2024-02-26T12:03:31;8.52;;;4.07;;
64235;SDS011;50564;47.402;9.740;2024-02-26T12:08:32;15.13;;;4.53;;
64235;SDS011;50564;47.402;9.740;2024-02-26T12:13:35;10.85;;;4.47;;
64235;SDS011;50564;47.402;9.740;2024-02-26T12:18:35;7.15;;;4.80;;
64235;SDS011;50564;47.402;9.740;2024-02-26T12:23:36;11.52;;;5.32;;
64235;SDS011;50564;47.402;9.740;2024-02-26T12:28:38;9.07;;;4.50;;
64235;SDS011;50564;47.402;9.740;2024-02-26T12:33:38;9.70;;;4.68;;
64235;SDS011;50564;47.402;9.740;2024-02-26T12:38:39;8.75;;;4.43;;
64235;SDS011;50564;47.402;9.740;2024-02-26T12:43:39;7.03;;;4.07;;
64235;SDS011;50564;47.402;9.740;2024-02-26T12:48:40;4.95;;;2.80;;
64235;SDS011;50564;47.402;9.740;2024-02-26T12:53:43;7.72;;;2.80;;
64235;SDS011;50564;47.402;9.740;2024-02-26T12:58:45;6.32;;;2.28;;
64235;SDS011;50564;47.402;9.740;2024-02-26T13:03:47;7.07;;;1.73;;
64235;SDS011;50564;47.402;9.740;2024-02-26T13:08:49;6.78;;;2.13;;
64235;SDS011;50564;47.402;9.740;2024-02-26T13:13:50;3.63;;;1.50;;
64235;SDS011;50564;47.402;9.740;2024-02-26T13:18:51;2.88;;;1.50;;
64235;SDS011;50564;47.402;9.740;2024-02-26T13:23:52;3.83;;;2.05;;
64235;SDS011;50564;47.402;9.740;2024-02-26T13:29:00;1.85;;;1.27;;
64235;SDS011;50564;47.402;9.740;2024-02-26T13:34:01;4.80;;;1.40;;
64235;SDS011;50564;47.402;9.740;2024-02-26T13:39:02;4.75;;;1.10;;
64235;SDS011;50564;47.402;9.740;2024-02-26T13:44:05;5.70;;;1.38;;
64235;SDS011;50564;47.402;9.740;2024-02-26T13:49:07;4.13;;;1.73;;
64235;SDS011;50564;47.402;9.740;2024-02-26T13:54:09;2.70;;;1.35;;
64235;SDS011;50564;47.402;9.740;2024-02-26T13:59:10;6.22;;;2.28;;
64235;SDS011;50564;47.402;9.740;2024-02-26T14:04:11;3.67;;;1.95;;
64235;SDS011;50564;47.402;9.740;2024-02-26T14:09:11;5.15;;;1.73;;
64235;SDS011;50564;47.402;9.740;2024-02-26T14:14:18;3.33;;;1.10;;
64235;SDS011;50564;47.402;9.740;2024-02-26T14:19:19;2.00;;;1.05;;
64235;SDS011;50564;47.402;9.740;2024-02-26T14:24:19;1.17;;;0.75;;
64235;SDS011;50564;47.402;9.740;2024-02-26T14:29:45;3.88;;;1.05;;
64235;SDS011;50564;47.402;9.740;2024-02-26T14:34:46;1.05;;;0.80;;
64235;SDS011;50564;47.402;9.740;2024-02-26T14:39:47;5.13;;;1.27;;
64235;SDS011;50564;47.402;9.740;2024-02-26T14:44:48;1.73;;;1.10;;
64235;SDS011;50564;47.402;9.740;2024-02-26T14:49:49;2.30;;;1.30;;
64235;SDS011;50564;47.402;9.740;2024-02-26T14:54:51;3.67;;;1.65;;
64235;SDS011;50564;47.402;9.740;2024-02-26T14:59:52;2.65;;;1.10;;
64235;SDS011;50564;47.402;9.740;2024-02-26T15:04:53;4.30;;;1.50;;
64235;SDS011;50564;47.402;9.740;2024-02-26T15:09:54;4.15;;;2.00;;
64235;SDS011;50564;47.402;9.740;2024-02-26T15:14:57;5.72;;;2.55;;
64235;SDS011;50564;47.402;9.740;2024-02-26T15:19:58;5.65;;;2.20;;
64235;SDS011;50564;47.402;9.740;2024-02-26T15:24:59;5.32;;;1.98;;
64235;SDS011;50564;47.402;9.740;2024-02-26T15:30:01;8.30;;;2.72;;
64235;SDS011;50564;47.402;9.740;2024-02-26T15:35:02;6.38;;;2.97;;
64235;SDS011;50564;47.402;9.740;2024-02-26T15:40:03;8.43;;;2.30;;
64235;SDS011;50564;47.402;9.740;2024-02-26T15:45:07;6.57;;;2.38;;
64235;SDS011;50564;47.402;9.740;2024-02-26T15:50:08;7.97;;;2.35;;
64235;SDS011;50564;47.402;9.740;2024-02-26T15:55:13;7.50;;;2.85;;
64235;SDS011;50564;47.402;9.740;2024-02-26T16:00:14;3.78;;;2.33;;
64235;SDS011;50564;47.402;9.740;2024-02-26T16:05:15;5.35;;;2.05;;
64235;SDS011;50564;47.402;9.740;2024-02-26T16:10:16;7.40;;;3.47;;
64235;SDS011;50564;47.402;9.740;2024-02-26T16:15:18;9.23;;;4.32;;
64235;SDS011;50564;47.402;9.740;2024-02-26T16:20:21;6.45;;;2.50;;
64235;SDS011;50564;47.402;9.740;2024-02-26T16:25:24;2.83;;;1.60;;
64235;SDS011;50564;47.402;9.740;2024-02-26T16:30:25;3.47;;;1.75;;
64235;SDS011;50564;47.402;9.740;2024-02-26T16:35:25;7.93;;;3.72;;
64235;SDS011;50564;47.402;9.740;2024-02-26T16:40:26;5.97;;;3.42;;
64235;SDS011;50564;47.402;9.740;2024-02-26T16:45:28;2.67;;;1.42;;
64235;SDS011;50564;47.402;9.740;2024-02-26T16:50:28;4.10;;;1.35;;
64235;SDS011;50564;47.402;9.740;2024-02-26T16:55:29;7.63;;;2.90;;
64235;SDS011;50564;47.402;9.740;2024-02-26T17:00:30;9.13;;;4.57;;
64235;SDS011;50564;47.402;9.740;2024-02-26T17:05:30;8.30;;;4.03;;
64235;SDS011;50564;47.402;9.740;2024-02-26T17:10:31;12.10;;;5.10;;
64235;SDS011;50564;47.402;9.740;2024-02-26T17:15:32;3.80;;;1.80;;
64235;SDS011;50564;47.402;9.740;2024-02-26T17:20:32;2.70;;;1.73;;
64235;SDS011;50564;47.402;9.740;2024-02-26T17:25:33;3.20;;;1.40;;
64235;SDS011;50564;47.402;9.740;2024-02-26T17:30:34;2.97;;;1.30;;
64235;SDS011;50564;47.402;9.740;2024-02-26T17:35:34;3.15;;;1.63;;
64235;SDS011;50564;47.402;9.740;2024-02-26T17:40:35;3.47;;;2.08;;
64235;SDS011;50564;47.402;9.740;2024-02-26T17:45:37;5.43;;;1.50;;
64235;SDS011;50564;47.402;9.740;2024-02-26T17:50:37;3.80;;;1.10;;
64235;SDS011;50564;47.402;9.740;2024-02-26T17:55:38;3.00;;;1.20;;
64235;SDS011;50564;47.402;9.740;2024-02-26T18:00:39;5.32;;;2.72;;
64235;SDS011;50564;47.402;9.740;2024-02-26T18:05:40;12.00;;;6.15;;
64235;SDS011;50564;47.402;9.740;2024-02-26T18:10:42;11.43;;;5.88;;
64235;SDS011;50564;47.402;9.740;2024-02-26T18:15:43;9.70;;;5.32;;
64235;SDS011;50564;47.402;9.740;2024-02-26T18:20:44;8.68;;;4.57;;
64235;SDS011;50564;47.402;9.740;2024-02-26T18:25:45;11.95;;;4.57;;
64235;SDS011;50564;47.402;9.740;2024-02-26T18:30:46;11.05;;;5.40;;
64235;SDS011;50564;47.402;9.740;2024-02-26T18:35:48;6.53;;;4.07;;
64235;SDS011;50564;47.402;9.740;2024-02-26T18:40:49;8.65;;;3.90;;
64235;SDS011;50564;47.402;9.740;2024-02-26T18:45:51;5.07;;;2.60;;
64235;SDS011;50564;47.402;9.740;2024-02-26T18:50:52;9.15;;;3.65;;
64235;SDS011;50564;47.402;9.740;2024-02-26T18:55:54;23.35;;;12.43;;
64235;SDS011;50564;47.402;9.740;2024-02-26T19:00:55;16.88;;;10.00;;
64235;SDS011;50564;47.402;9.740;2024-02-26T19:05:57;10.88;;;6.38;;
64235;SDS011;50564;47.402;9.740;2024-02-26T19:10:59;8.13;;;3.80;;
64235;SDS011;50564;47.402;9.740;2024-02-26T19:16:01;4.65;;;2.10;;
64235;SDS011;50564;47.402;9.740;2024-02-26T19:21:03;3.53;;;1.33;;
64235;SDS011;50564;47.402;9.740;2024-02-26T19:26:08;3.63;;;1.40;;
64235;SDS011;50564;47.402;9.740;2024-02-26T19:31:10;2.33;;;1.50;;
64235;SDS011;50564;47.402;9.740;2024-02-26T19:36:13;2.08;;;1.20;;
64235;SDS011;50564;47.402;9.740;2024-02-26T19:41:14;2.67;;;1.10;;
64235;SDS011;50564;47.402;9.740;2024-02-26T19:46:16;3.00;;;1.63;;
64235;SDS011;50564;47.402;9.740;2024-02-26T19:51:18;1.58;;;1.10;;
64235;SDS011;50564;47.402;9.740;2024-02-26T19:56:20;2.38;;;0.90;;
64235;SDS011;50564;47.402;9.740;2024-02-26T20:01:23;2.40;;;1.08;;
64235;SDS011;50564;47.402;9.740;2024-02-26T20:06:25;5.07;;;1.92;;
64235;SDS011;50564;47.402;9.740;2024-02-26T20:11:27;4.60;;;1.35;;
64235;SDS011;50564;47.402;9.740;2024-02-26T20:16:29;2.03;;;0.70;;
64235;SDS011;50564;47.402;9.740;2024-02-26T20:21:31;2.05;;;0.70;;
64235;SDS011;50564;47.402;9.740;2024-02-26T20:26:36;2.53;;;0.50;;
64235;SDS011;50564;47.402;9.740;2024-02-26T20:31:39;4.10;;;1.23;;
64235;SDS011;50564;47.402;9.740;2024-02-26T20:36:40;1.65;;;0.93;;
64235;SDS011;50564;47.402;9.740;2024-02-26T20:41:42;0.60;;;0.50;;
64235;SDS011;50564;47.402;9.740;2024-02-26T20:46:44;0.70;;;0.60;;
64235;SDS011;50564;47.402;9.740;2024-02-26T20:51:47;0.50;;;0.50;;
64235;SDS011;50564;47.402;9.740;2024-02-26T20:56:48;1.60;;;0.90;;
64235;SDS011;50564;47.402;9.740;2024-02-26T21:01:50;4.45;;;2.50;;
64235;SDS011;50564;47.402;9.740;2024-02-26T21:06:51;2.67;;;1.50;;
64235;SDS011;50564;47.402;9.740;2024-02-26T21:11:53;0.95;;;0.57;;
64235;SDS011;50564;47.402;9.740;2024-02-26T21:16:54;2.90;;;0.52;;
64235;SDS011;50564;47.402;9.740;2024-02-26T21:21:55;1.35;;;0.80;;
64235;SDS011;50564;47.402;9.740;2024-02-26T21:26:56;0.47;;;0.47;;
64235;SDS011;50564;47.402;9.740;2024-02-26T21:31:57;1.38;;;0.90;;
64235;SDS011;50564;47.402;9.740;2024-02-26T21:36:58;2.38;;;0.50;;
64235;SDS011;50564;47.402;9.740;2024-02-26T21:41:58;1.23;;;0.70;;
64235;SDS011;50564;47.402;9.740;2024-02-26T21:46:59;1.08;;;0.70;;
64235;SDS011;50564;47.402;9.740;2024-02-26T21:52:01;0.50;;;0.47;;
64235;SDS011;50564;47.402;9.740;2024-02-26T21:57:02;4.13;;;2.10;;
64235;SDS011;50564;47.402;9.740;2024-02-26T22:02:03;7.05;;;4.15;;
64235;SDS011;50564;47.402;9.740;2024-02-26T22:07:04;8.85;;;4.63;;
64235;SDS011;50564;47.402;9.740;2024-02-26T22:12:05;10.75;;;5.15;;
64235;SDS011;50564;47.402;9.740;2024-02-26T22:17:07;4.70;;;2.10;;
64235;SDS011;50564;47.402;9.740;2024-02-26T22:22:09;1.77;;;1.15;;
64235;SDS011;50564;47.402;9.740;2024-02-26T22:27:09;2.65;;;1.40;;
64235;SDS011;50564;47.402;9.740;2024-02-26T22:32:10;1.10;;;0.70;;
64235;SDS011;50564;47.402;9.740;2024-02-26T22:37:11;0.50;;;0.50;;
64235;SDS011;50564;47.402;9.740;2024-02-26T22:42:13;1.35;;;0.50;;
64235;SDS011;50564;47.402;9.740;2024-02-26T22:47:15;1.38;;;0.77;;
64235;SDS011;50564;47.402;9.740;2024-02-26T22:52:15;2.38;;;1.20;;
64235;SDS011;50564;47.402;9.740;2024-02-26T22:57:17;4.53;;;1.75;;
64235;SDS011;50564;47.402;9.740;2024-02-26T23:02:18;7.05;;;3.17;;
64235;SDS011;50564;47.402;9.740;2024-02-26T23:07:19;10.07;;;4.13;;
64235;SDS011;50564;47.402;9.740;2024-02-26T23:12:19;10.02;;;5.15;;
64235;SDS011;50564;47.402;9.740;2024-02-26T23:17:20;10.95;;;5.32;;
64235;SDS011;50564;47.402;9.740;2024-02-26T23:22:21;9.48;;;5.38;;
64235;SDS011;50564;47.402;9.740;2024-02-26T23:27:21;12.25;;;5.88;;
64235;SDS011;50564;47.402;9.740;2024-02-26T23:32:22;13.82;;;6.40;;
64235;SDS011;50564;47.402;9.740;2024-02-26T23:37:23;11.88;;;7.00;;
64235;SDS011;50564;47.402;9.740;2024-02-26T23:42:23;12.77;;;6.13;;
64235;SDS011;50564;47.402;9.740;2024-02-26T23:47:24;13.23;;;6.97;;
64235;SDS011;50564;47.402;9.740;2024-02-26T23:52:25;11.35;;;5.72;;
64235;SDS011;50564;47.402;9.740;2024-02-26T23:57:26;11.25;;;6.15;;
